Time;durP1;ratioP1;P1;durP2;ratioP2;P2;SDS_P1;SDS_P2;PMS_P1;PMS_P2;Temp;Humidity;BMP_temperature;BMP_pressure;BME280_temperature;BME280_humidity;BME280_pressure;Samples;Min_cycle;Max_cycle;Signal;HPM_P1;HPM_P2
2021/10/05 00:00:59;;;;;;;4.80;1.70;;;;;;;;;;4969048;28;20031;-67
2021/10/05 00:03:25;;;;;;;8.23;1.83;;;;;;;;;;4969411;28;20098;-68
2021/10/05 00:05:52;;;;;;;8.98;1.98;;;;;;;;;;4961962;28;20074;-68
2021/10/05 00:08:18;;;;;;;11.45;2.20;;;;;;;;;;4976099;28;20200;-67
2021/10/05 00:10:44;;;;;;;7.07;2.00;;;;;;;;;;4966353;28;20034;-68
2021/10/05 00:13:10;;;;;;;8.73;2.03;;;;;;;;;;4965530;28;20733;-68
2021/10/05 00:15:36;;;;;;;10.73;2.88;;;;;;;;;;4964156;28;20122;-68
2021/10/05 00:18:02;;;;;;;9.57;1.75;;;;;;;;;;4964180;28;20059;-68
2021/10/05 00:20:29;;;;;;;9.93;2.05;;;;;;;;;;4961450;28;20042;-68
2021/10/05 00:22:55;;;;;;;6.57;1.52;;;;;;;;;;4967555;28;20521;-68
2021/10/05 00:25:21;;;;;;;8.20;1.60;;;;;;;;;;4968664;28;20306;-68
2021/10/05 00:27:47;;;;;;;14.45;2.58;;;;;;;;;;4968293;28;20053;-68
2021/10/05 00:30:13;;;;;;;9.68;1.90;;;;;;;;;;4970078;28;20109;-68
2021/10/05 00:32:39;;;;;;;9.73;2.10;;;;;;;;;;4972697;28;20049;-68
2021/10/05 00:35:06;;;;;;;10.63;2.17;;;;;;;;;;4971218;28;20050;-69
2021/10/05 00:37:32;;;;;;;7.93;1.75;;;;;;;;;;4973865;28;20027;-67
2021/10/05 00:39:58;;;;;;;11.30;2.50;;;;;;;;;;4967590;28;20035;-68
2021/10/05 00:42:24;;;;;;;7.43;1.88;;;;;;;;;;4969354;28;20042;-68
2021/10/05 00:44:51;;;;;;;4.50;1.92;;;;;;;;;;4963839;28;20138;-68
2021/10/05 00:47:17;;;;;;;7.68;2.28;;;;;;;;;;4964340;28;20042;-68
2021/10/05 00:49:44;;;;;;;3.95;1.90;;;;;;;;;;4966341;28;20030;-68
2021/10/05 00:52:11;;;;;;;6.65;2.08;;;;;;;;;;4967946;28;20075;-68
2021/10/05 00:54:38;;;;;;;9.57;2.08;;;;;;;;;;4967794;28;20093;-68
2021/10/05 00:57:05;;;;;;;6.38;2.42;;;;;;;;;;4966873;28;20109;-68
2021/10/05 00:59:33;;;;;;;6.18;1.90;;;;;;;;;;4971104;28;20026;-68
2021/10/05 01:01:59;;;;;;;8.18;2.03;;;;;;;;;;4968417;28;20502;-68
2021/10/05 01:04:26;;;;;;;10.20;1.75;;;;;;;;;;4972325;28;20033;-68
2021/10/05 01:07:00;;;;;;;7.05;1.98;;;;;;;;;;4968671;28;20032;-68
2021/10/05 01:09:27;;;;;;;6.30;1.80;;;;;;;;;;4966272;28;20030;-67
2021/10/05 01:11:53;;;;;;;7.55;2.20;;;;;;;;;;4971071;28;20101;-67
2021/10/05 01:14:19;;;;;;;6.93;2.03;;;;;;;;;;4966073;28;20024;-68
2021/10/05 01:16:46;;;;;;;11.00;1.85;;;;;;;;;;4971077;28;20391;-68
2021/10/05 01:19:12;;;;;;;7.00;1.83;;;;;;;;;;4958541;28;20023;-68
2021/10/05 01:21:38;;;;;;;7.35;2.13;;;;;;;;;;4958782;28;20378;-67
2021/10/05 01:24:11;;;;;;;6.85;1.98;;;;;;;;;;4980472;28;20031;-67
2021/10/05 01:26:37;;;;;;;9.88;1.80;;;;;;;;;;4970487;28;20039;-68
2021/10/05 01:29:07;;;;;;;8.75;2.10;;;;;;;;;;4970124;28;20034;-67
2021/10/05 01:31:36;;;;;;;9.43;1.85;;;;;;;;;;4973058;28;20027;-67
2021/10/05 01:34:03;;;;;;;7.22;2.00;;;;;;;;;;4971066;28;20038;-68
2021/10/05 01:36:29;;;;;;;11.07;1.90;;;;;;;;;;4969790;28;20491;-67
2021/10/05 01:38:55;;;;;;;10.52;1.75;;;;;;;;;;4968133;28;20454;-67
2021/10/05 01:41:21;;;;;;;7.35;1.63;;;;;;;;;;4967340;28;20266;-67
2021/10/05 01:43:47;;;;;;;8.48;2.28;;;;;;;;;;4971682;28;20023;-67
2021/10/05 01:46:14;;;;;;;8.23;1.77;;;;;;;;;;4971163;28;20027;-67
2021/10/05 01:48:41;;;;;;;8.73;1.70;;;;;;;;;;4968638;28;20459;-67
2021/10/05 01:51:07;;;;;;;10.10;2.13;;;;;;;;;;4972069;28;20506;-68
2021/10/05 01:53:33;;;;;;;8.15;2.00;;;;;;;;;;4971084;28;20054;-67
2021/10/05 01:55:59;;;;;;;6.90;1.85;;;;;;;;;;4968496;28;20038;-68
2021/10/05 01:58:25;;;;;;;7.35;2.10;;;;;;;;;;4963768;28;20689;-68
2021/10/05 02:00:51;;;;;;;5.90;1.98;;;;;;;;;;4970874;28;20114;-68
2021/10/05 02:03:19;;;;;;;12.02;1.98;;;;;;;;;;4978978;28;20449;-68
2021/10/05 02:05:45;;;;;;;12.93;2.17;;;;;;;;;;4970947;28;20030;-68
2021/10/05 02:08:11;;;;;;;5.38;1.88;;;;;;;;;;4965900;28;20027;-68
2021/10/05 02:10:37;;;;;;;6.88;1.73;;;;;;;;;;4972441;28;20022;-68
2021/10/05 02:13:04;;;;;;;7.93;1.58;;;;;;;;;;4961881;28;20042;-67
2021/10/05 02:15:30;;;;;;;10.52;2.55;;;;;;;;;;4970450;28;20522;-68
2021/10/05 02:17:56;;;;;;;9.25;1.63;;;;;;;;;;4970114;28;20031;-67
2021/10/05 02:20:22;;;;;;;6.68;1.67;;;;;;;;;;4968658;28;20027;-68
2021/10/05 02:22:48;;;;;;;7.75;1.80;;;;;;;;;;4971662;28;20495;-68
2021/10/05 02:25:15;;;;;;;8.77;1.95;;;;;;;;;;4966485;28;20022;-67
2021/10/05 02:27:41;;;;;;;12.20;2.47;;;;;;;;;;4970392;28;20159;-67
2021/10/05 02:30:07;;;;;;;6.43;1.73;;;;;;;;;;4965071;28;20058;-68
2021/10/05 02:32:33;;;;;;;5.53;1.77;;;;;;;;;;4970221;28;20514;-68
2021/10/05 02:35:00;;;;;;;6.93;1.83;;;;;;;;;;4966206;28;20043;-68
2021/10/05 02:37:31;;;;;;;6.18;1.63;;;;;;;;;;4974732;28;20026;-68
2021/10/05 02:39:58;;;;;;;11.00;2.00;;;;;;;;;;4966755;28;20132;-67
2021/10/05 02:42:24;;;;;;;8.15;2.08;;;;;;;;;;4969897;28;20551;-68
2021/10/05 02:44:50;;;;;;;6.57;1.90;;;;;;;;;;4968255;28;20518;-68
2021/10/05 02:47:16;;;;;;;4.75;1.80;;;;;;;;;;4970991;28;20023;-67
2021/10/05 02:49:45;;;;;;;7.65;1.85;;;;;;;;;;4967525;28;20054;-68
2021/10/05 02:52:12;;;;;;;7.93;2.17;;;;;;;;;;4968421;28;20030;-68
2021/10/05 02:54:38;;;;;;;6.15;1.98;;;;;;;;;;4970366;28;20034;-67
2021/10/05 02:57:05;;;;;;;12.32;2.42;;;;;;;;;;4965003;28;20118;-67
2021/10/05 02:59:31;;;;;;;8.38;1.95;;;;;;;;;;4961332;28;20031;-68
2021/10/05 03:01:57;;;;;;;7.70;1.88;;;;;;;;;;4970915;28;20094;-67
2021/10/05 03:04:24;;;;;;;9.07;2.00;;;;;;;;;;4967204;28;20038;-68
2021/10/05 03:06:50;;;;;;;5.72;1.70;;;;;;;;;;4970890;28;20086;-68
2021/10/05 03:09:16;;;;;;;8.32;2.00;;;;;;;;;;4968343;28;20022;-68
2021/10/05 03:11:42;;;;;;;5.13;1.90;;;;;;;;;;4970084;28;20043;-67
2021/10/05 03:14:08;;;;;;;10.15;2.13;;;;;;;;;;4962742;28;20031;-67
2021/10/05 03:16:34;;;;;;;5.20;1.90;;;;;;;;;;4964895;28;20038;-67
2021/10/05 03:19:00;;;;;;;6.65;2.17;;;;;;;;;;4965040;28;20338;-67
2021/10/05 03:21:26;;;;;;;7.63;2.75;;;;;;;;;;4962539;28;20159;-68
2021/10/05 03:23:52;;;;;;;7.65;2.35;;;;;;;;;;4966493;28;20027;-68
2021/10/05 03:26:19;;;;;;;14.85;2.25;;;;;;;;;;4971448;28;20031;-68
2021/10/05 03:28:45;;;;;;;11.18;2.28;;;;;;;;;;4960325;28;20055;-67
2021/10/05 03:31:11;;;;;;;5.47;2.05;;;;;;;;;;4969491;28;20037;-68
2021/10/05 03:33:38;;;;;;;10.75;2.55;;;;;;;;;;4964133;28;20027;-67
2021/10/05 03:36:05;;;;;;;5.05;2.10;;;;;;;;;;4972577;28;20054;-67
2021/10/05 03:38:31;;;;;;;6.10;2.17;;;;;;;;;;4967911;28;20030;-68
2021/10/05 03:40:57;;;;;;;9.18;2.30;;;;;;;;;;4966809;28;20073;-67
2021/10/05 03:43:23;;;;;;;5.88;2.00;;;;;;;;;;4968195;28;20027;-68
2021/10/05 03:45:50;;;;;;;7.45;2.50;;;;;;;;;;4967819;28;20026;-68
2021/10/05 03:48:17;;;;;;;9.32;2.53;;;;;;;;;;4967536;28;20216;-67
2021/10/05 03:50:43;;;;;;;10.18;2.70;;;;;;;;;;4970250;28;20030;-68
2021/10/05 03:53:09;;;;;;;6.30;2.17;;;;;;;;;;4970206;28;20051;-68
2021/10/05 03:55:35;;;;;;;6.18;2.28;;;;;;;;;;4974749;28;20384;-68
2021/10/05 03:58:01;;;;;;;7.68;2.40;;;;;;;;;;4963624;28;20019;-68
2021/10/05 04:00:27;;;;;;;7.93;2.88;;;;;;;;;;4967099;28;20054;-68
2021/10/05 04:02:55;;;;;;;13.65;3.00;;;;;;;;;;4968485;28;20026;-68
2021/10/05 04:05:21;;;;;;;9.75;2.83;;;;;;;;;;4968142;28;20719;-69
2021/10/05 04:07:47;;;;;;;8.80;2.40;;;;;;;;;;4968953;28;20460;-68
2021/10/05 04:10:13;;;;;;;6.65;2.30;;;;;;;;;;4966835;28;20027;-68
2021/10/05 04:12:39;;;;;;;10.15;3.00;;;;;;;;;;4970391;28;20515;-67
2021/10/05 04:15:05;;;;;;;10.10;3.00;;;;;;;;;;4977441;28;20105;-67
2021/10/05 04:17:31;;;;;;;5.57;2.58;;;;;;;;;;4971870;28;20074;-68
2021/10/05 04:19:58;;;;;;;20.10;2.95;;;;;;;;;;4965033;28;20031;-68
2021/10/05 04:22:24;;;;;;;6.20;2.30;;;;;;;;;;4970273;28;20360;-68
2021/10/05 04:24:50;;;;;;;7.82;2.28;;;;;;;;;;4966404;28;20027;-69
2021/10/05 04:27:16;;;;;;;8.25;2.50;;;;;;;;;;4967852;28;20395;-67
2021/10/05 04:29:42;;;;;;;6.80;2.45;;;;;;;;;;4964650;28;20542;-67
2021/10/05 04:32:09;;;;;;;7.00;2.35;;;;;;;;;;4965217;28;20055;-68
2021/10/05 04:34:35;;;;;;;8.32;2.67;;;;;;;;;;4970567;28;20027;-68
2021/10/05 04:37:01;;;;;;;17.85;2.85;;;;;;;;;;4965523;28;20019;-67
2021/10/05 04:39:28;;;;;;;13.85;3.97;;;;;;;;;;4966526;28;20121;-67
2021/10/05 04:41:54;;;;;;;9.88;2.60;;;;;;;;;;4961769;28;20027;-68
2021/10/05 04:44:20;;;;;;;5.93;2.80;;;;;;;;;;4967208;28;20042;-67
2021/10/05 04:46:46;;;;;;;13.15;2.50;;;;;;;;;;4970594;28;20023;-67
2021/10/05 04:49:12;;;;;;;7.10;2.40;;;;;;;;;;4959494;28;20089;-67
2021/10/05 04:51:38;;;;;;;8.98;2.22;;;;;;;;;;4962339;28;20242;-68
2021/10/05 04:54:04;;;;;;;7.38;2.35;;;;;;;;;;4967339;28;20026;-68
2021/10/05 04:56:30;;;;;;;9.98;2.25;;;;;;;;;;4966377;28;20030;-68
2021/10/05 04:58:56;;;;;;;5.88;2.50;;;;;;;;;;4962646;28;20403;-68
2021/10/05 05:01:22;;;;;;;10.88;2.53;;;;;;;;;;4964685;28;20658;-67
2021/10/05 05:03:48;;;;;;;9.52;2.80;;;;;;;;;;4976341;28;20413;-68
2021/10/05 05:06:14;;;;;;;9.98;2.67;;;;;;;;;;4975638;28;20113;-68
2021/10/05 05:08:40;;;;;;;8.35;2.78;;;;;;;;;;4966419;28;20038;-68
2021/10/05 05:11:06;;;;;;;8.45;2.58;;;;;;;;;;4967017;28;20049;-68
2021/10/05 05:13:32;;;;;;;18.08;3.10;;;;;;;;;;4972392;28;20106;-68
2021/10/05 05:15:59;;;;;;;9.48;3.33;;;;;;;;;;4974213;28;20122;-68
2021/10/05 05:18:25;;;;;;;10.48;2.75;;;;;;;;;;4974998;28;20058;-68
2021/10/05 05:20:51;;;;;;;8.88;2.55;;;;;;;;;;4972849;28;20022;-68
2021/10/05 05:23:17;;;;;;;8.38;2.72;;;;;;;;;;4977377;28;20029;-68
2021/10/05 05:25:43;;;;;;;8.45;2.60;;;;;;;;;;4971600;28;20027;-67
2021/10/05 05:28:09;;;;;;;11.63;4.78;;;;;;;;;;4970901;28;20035;-67
2021/10/05 05:30:36;;;;;;;11.48;2.40;;;;;;;;;;4966183;28;20063;-68
2021/10/05 05:33:02;;;;;;;13.75;2.45;;;;;;;;;;4973351;28;20031;-68
2021/10/05 05:35:28;;;;;;;10.15;3.30;;;;;;;;;;4970420;28;20027;-68
2021/10/05 05:37:54;;;;;;;9.07;2.60;;;;;;;;;;4971202;28;20030;-68
2021/10/05 05:40:20;;;;;;;9.60;2.22;;;;;;;;;;4971641;28;20023;-69
2021/10/05 05:45:32;;;;;;;9.77;2.83;;;;;;;;;;4695762;23;20189;-67
2021/10/05 05:47:58;;;;;;;8.88;2.70;;;;;;;;;;4951336;28;20506;-67
2021/10/05 05:50:25;;;;;;;10.35;3.13;;;;;;;;;;4948812;28;20066;-67
2021/10/05 05:52:51;;;;;;;11.85;3.60;;;;;;;;;;4952071;28;20019;-68
2021/10/05 05:55:17;;;;;;;8.00;3.25;;;;;;;;;;4967339;28;20035;-69
2021/10/05 05:57:47;;;;;;;10.65;3.72;;;;;;;;;;4949171;28;20073;-68
2021/10/05 06:00:13;;;;;;;7.57;2.97;;;;;;;;;;4944693;28;20023;-68
2021/10/05 06:02:39;;;;;;;7.72;3.13;;;;;;;;;;4949771;28;20043;-68
2021/10/05 06:05:05;;;;;;;13.23;3.30;;;;;;;;;;4949864;28;20028;-67
2021/10/05 06:07:32;;;;;;;11.57;3.28;;;;;;;;;;4952844;28;20019;-67
2021/10/05 06:09:58;;;;;;;11.18;3.63;;;;;;;;;;4948635;28;20405;-68
2021/10/05 06:12:27;;;;;;;9.93;3.55;;;;;;;;;;4950484;28;20509;-68
2021/10/05 06:14:53;;;;;;;6.90;3.40;;;;;;;;;;4952938;28;20045;-67
2021/10/05 06:17:19;;;;;;;9.93;3.92;;;;;;;;;;4952452;28;20065;-66
2021/10/05 06:19:45;;;;;;;9.82;3.72;;;;;;;;;;4946355;28;20031;-67
2021/10/05 06:22:11;;;;;;;12.45;5.13;;;;;;;;;;4949090;28;20035;-68
2021/10/05 06:29:47;;;;;;;10.00;3.45;;;;;;;;;;4516817;23;20138;-69
2021/10/05 06:32:13;;;;;;;10.45;4.30;;;;;;;;;;4953033;28;20405;-71
2021/10/05 06:34:39;;;;;;;10.95;3.75;;;;;;;;;;4953536;29;20426;-69
2021/10/05 06:37:05;;;;;;;7.68;3.78;;;;;;;;;;4962591;28;20031;-69
2021/10/05 06:39:31;;;;;;;8.98;3.13;;;;;;;;;;4971310;28;20482;-69
2021/10/05 06:41:57;;;;;;;8.48;3.28;;;;;;;;;;4952334;29;20086;-68
2021/10/05 06:44:23;;;;;;;8.80;2.85;;;;;;;;;;4948602;28;20019;-69
2021/10/05 06:46:49;;;;;;;8.23;3.63;;;;;;;;;;4946834;28;20031;-70
2021/10/05 06:49:15;;;;;;;9.70;2.85;;;;;;;;;;4946919;29;20390;-71
2021/10/05 06:51:41;;;;;;;8.98;2.50;;;;;;;;;;4952521;29;20395;-69
2021/10/05 06:54:07;;;;;;;9.55;3.33;;;;;;;;;;4952831;28;20490;-68
2021/10/05 06:56:34;;;;;;;8.63;2.92;;;;;;;;;;4953309;29;20494;-69
2021/10/05 06:59:00;;;;;;;8.07;2.53;;;;;;;;;;4955621;28;20397;-70
2021/10/05 07:01:26;;;;;;;8.93;2.90;;;;;;;;;;4952785;28;20511;-69
2021/10/05 07:03:52;;;;;;;9.00;3.15;;;;;;;;;;4950658;28;20043;-70
2021/10/05 07:06:19;;;;;;;9.10;3.10;;;;;;;;;;4952099;29;20093;-71
2021/10/05 07:08:45;;;;;;;8.45;3.25;;;;;;;;;;4950201;28;20098;-70
2021/10/05 07:11:11;;;;;;;11.85;2.83;;;;;;;;;;4955576;28;20030;-72
2021/10/05 07:13:37;;;;;;;9.02;2.55;;;;;;;;;;4972302;28;20510;-69
2021/10/05 07:16:03;;;;;;;11.05;3.55;;;;;;;;;;4971628;28;20051;-69
2021/10/05 07:18:32;;;;;;;11.43;2.38;;;;;;;;;;4979122;28;20134;-70
2021/10/05 07:20:59;;;;;;;12.63;2.50;;;;;;;;;;4951656;29;20473;-69
2021/10/05 07:23:25;;;;;;;10.70;2.53;;;;;;;;;;4952893;29;20042;-68
2021/10/05 07:25:51;;;;;;;8.27;2.42;;;;;;;;;;4960325;28;20030;-69
2021/10/05 07:28:17;;;;;;;6.85;2.33;;;;;;;;;;4949874;28;20411;-70
2021/10/05 07:30:44;;;;;;;7.95;3.33;;;;;;;;;;4947475;29;20033;-71
2021/10/05 07:33:10;;;;;;;14.82;3.13;;;;;;;;;;4952245;29;20031;-70
2021/10/05 07:35:36;;;;;;;5.85;2.28;;;;;;;;;;4951705;28;20035;-70
2021/10/05 07:38:03;;;;;;;11.05;2.83;;;;;;;;;;4966594;28;20039;-72
2021/10/05 07:40:30;;;;;;;4.28;2.25;;;;;;;;;;4956826;28;20023;-69
2021/10/05 07:42:57;;;;;;;9.90;3.42;;;;;;;;;;4963595;28;20406;-70
2021/10/05 07:45:24;;;;;;;8.75;2.28;;;;;;;;;;4974101;28;20421;-70
2021/10/05 07:47:50;;;;;;;11.57;2.75;;;;;;;;;;4952143;28;20031;-69
2021/10/05 07:50:16;;;;;;;12.75;2.45;;;;;;;;;;4941346;29;20122;-72
2021/10/05 07:52:42;;;;;;;9.80;2.15;;;;;;;;;;4967866;28;20073;-71
2021/10/05 07:55:09;;;;;;;11.52;2.70;;;;;;;;;;4986252;28;20027;-71
2021/10/05 07:57:35;;;;;;;9.00;2.47;;;;;;;;;;4957639;28;20034;-70
2021/10/05 08:00:03;;;;;;;7.68;2.60;;;;;;;;;;4963897;28;20512;-70
2021/10/05 08:02:29;;;;;;;6.68;2.50;;;;;;;;;;4963448;28;20512;-71
2021/10/05 08:04:56;;;;;;;10.88;2.38;;;;;;;;;;4961407;28;20505;-71
2021/10/05 08:07:26;;;;;;;7.78;2.53;;;;;;;;;;4952275;28;20031;-69
2021/10/05 08:09:52;;;;;;;10.00;2.17;;;;;;;;;;4948993;29;20027;-72
2021/10/05 08:12:18;;;;;;;9.45;3.83;;;;;;;;;;4978908;28;20456;-71
2021/10/05 08:14:44;;;;;;;8.15;2.22;;;;;;;;;;4956432;28;20023;-71
2021/10/05 08:17:11;;;;;;;7.82;1.92;;;;;;;;;;4951766;28;20078;-71
2021/10/05 08:19:37;;;;;;;8.30;2.15;;;;;;;;;;4957125;28;20031;-70
2021/10/05 08:22:04;;;;;;;10.75;2.88;;;;;;;;;;4950947;28;20019;-71
2021/10/05 08:24:30;;;;;;;9.60;2.53;;;;;;;;;;4952354;28;20024;-71
2021/10/05 08:26:56;;;;;;;7.35;2.00;;;;;;;;;;4950294;29;20050;-70
2021/10/05 08:29:23;;;;;;;6.43;2.30;;;;;;;;;;4976265;28;20054;-73
2021/10/05 08:31:49;;;;;;;9.13;2.38;;;;;;;;;;4971330;28;20489;-71
2021/10/05 08:34:16;;;;;;;11.90;2.47;;;;;;;;;;4951601;29;20490;-69
2021/10/05 08:36:42;;;;;;;9.50;2.28;;;;;;;;;;4951044;28;20042;-70
2021/10/05 08:39:10;;;;;;;11.48;2.70;;;;;;;;;;4946054;28;20057;-69
2021/10/05 08:41:37;;;;;;;5.30;2.42;;;;;;;;;;4945460;28;20020;-71
2021/10/05 08:44:04;;;;;;;12.25;2.80;;;;;;;;;;4957779;28;20046;-70
2021/10/05 08:46:30;;;;;;;8.35;3.08;;;;;;;;;;4950572;28;20038;-71
2021/10/05 08:48:57;;;;;;;12.93;2.90;;;;;;;;;;4959558;28;20031;-71
2021/10/05 08:51:23;;;;;;;7.43;2.63;;;;;;;;;;4954785;28;20064;-72
2021/10/05 08:53:49;;;;;;;8.88;2.90;;;;;;;;;;4955486;28;20039;-74
2021/10/05 08:56:15;;;;;;;8.77;3.13;;;;;;;;;;4954283;29;20039;-75
2021/10/05 08:58:42;;;;;;;13.07;3.13;;;;;;;;;;4952829;28;20042;-76
2021/10/05 09:01:12;;;;;;;8.30;2.95;;;;;;;;;;4955262;28;20150;-77
2021/10/05 09:03:46;;;;;;;10.02;3.47;;;;;;;;;;4953427;28;20058;-76
2021/10/05 09:06:13;;;;;;;16.00;3.90;;;;;;;;;;4987581;28;20045;-77
2021/10/05 09:08:39;;;;;;;9.57;3.67;;;;;;;;;;4965387;28;20031;-76
2021/10/05 09:11:05;;;;;;;14.93;4.25;;;;;;;;;;4970625;28;20023;-75
2021/10/05 09:13:32;;;;;;;9.95;3.40;;;;;;;;;;4963125;28;20502;-75
2021/10/05 09:15:59;;;;;;;14.38;3.53;;;;;;;;;;4954933;28;20031;-77
2021/10/05 09:18:25;;;;;;;11.27;3.22;;;;;;;;;;4952174;28;20285;-74
2021/10/05 09:20:51;;;;;;;10.73;3.47;;;;;;;;;;4961898;28;20038;-74
2021/10/05 09:23:17;;;;;;;14.27;3.72;;;;;;;;;;4963385;28;20040;-75
2021/10/05 09:25:48;;;;;;;9.02;3.40;;;;;;;;;;4955149;29;20027;-75
2021/10/05 09:28:22;;;;;;;12.32;3.10;;;;;;;;;;4958403;28;20045;-74
2021/10/05 09:31:07;;;;;;;7.18;3.17;;;;;;;;;;4962587;28;20031;-74
2021/10/05 09:33:34;;;;;;;9.82;4.50;;;;;;;;;;4965811;28;20027;-74
2021/10/05 09:36:00;;;;;;;11.10;4.57;;;;;;;;;;4963505;28;20102;-74
2021/10/05 09:38:27;;;;;;;17.30;4.05;;;;;;;;;;4951942;28;20456;-74
2021/10/05 09:41:12;;;;;;;11.60;3.63;;;;;;;;;;4953268;29;20035;-73
2021/10/05 09:43:38;;;;;;;14.48;4.60;;;;;;;;;;4954835;28;20074;-75
2021/10/05 09:46:14;;;;;;;8.10;3.65;;;;;;;;;;4954445;28;20027;-74
2021/10/05 09:48:41;;;;;;;9.15;3.55;;;;;;;;;;4951942;29;20027;-74
2021/10/05 09:51:24;;;;;;;12.70;3.88;;;;;;;;;;4953284;29;20029;-74
2021/10/05 09:53:51;;;;;;;8.13;3.70;;;;;;;;;;4952857;29;20221;-73
2021/10/05 09:56:17;;;;;;;12.23;3.95;;;;;;;;;;4954461;28;20051;-75
2021/10/05 09:58:43;;;;;;;12.30;3.70;;;;;;;;;;4949818;28;20028;-74
2021/10/05 10:01:09;;;;;;;10.65;3.50;;;;;;;;;;4955830;28;20030;-75
2021/10/05 10:03:37;;;;;;;8.63;3.50;;;;;;;;;;4954108;28;20123;-74
2021/10/05 10:06:04;;;;;;;11.07;3.70;;;;;;;;;;4952743;28;20031;-74
2021/10/05 10:08:34;;;;;;;6.93;3.03;;;;;;;;;;4959755;28;20338;-73
2021/10/05 10:11:00;;;;;;;16.70;3.67;;;;;;;;;;4961636;28;20082;-74
2021/10/05 10:13:26;;;;;;;7.43;3.20;;;;;;;;;;4959106;28;20030;-73
2021/10/05 10:15:56;;;;;;;7.50;3.45;;;;;;;;;;4979061;28;20081;-75
2021/10/05 10:18:22;;;;;;;9.20;2.90;;;;;;;;;;4965964;28;20423;-74
2021/10/05 10:21:08;;;;;;;9.50;2.92;;;;;;;;;;4953141;28;20114;-73
2021/10/05 10:23:36;;;;;;;8.82;3.47;;;;;;;;;;4954430;28;20049;-73
2021/10/05 10:26:04;;;;;;;8.82;3.20;;;;;;;;;;4963301;28;20386;-74
2021/10/05 10:28:35;;;;;;;11.20;3.08;;;;;;;;;;4949762;28;20047;-73
2021/10/05 10:31:05;;;;;;;10.60;2.83;;;;;;;;;;4953412;29;20030;-73
2021/10/05 10:33:42;;;;;;;11.32;3.08;;;;;;;;;;4953405;28;20106;-74
2021/10/05 10:36:09;;;;;;;6.43;3.08;;;;;;;;;;4985930;28;20397;-73
2021/10/05 10:38:36;;;;;;;10.43;2.63;;;;;;;;;;4976579;28;20409;-74
2021/10/05 10:41:12;;;;;;;13.63;3.33;;;;;;;;;;4953235;28;20407;-75
2021/10/05 10:43:38;;;;;;;10.02;2.70;;;;;;;;;;4961954;28;20027;-73
2021/10/05 10:46:04;;;;;;;8.00;2.72;;;;;;;;;;4975933;28;20035;-74
2021/10/05 10:48:30;;;;;;;6.63;2.63;;;;;;;;;;4967627;28;20122;-73
2021/10/05 10:50:58;;;;;;;9.02;3.55;;;;;;;;;;4949630;29;20478;-74
2021/10/05 10:53:50;;;;;;;9.80;2.75;;;;;;;;;;4945547;28;20031;-73
2021/10/05 10:56:16;;;;;;;;;;;;;;;;;;4959508;28;20071;-73
2021/10/05 10:58:45;;;;;;;8.27;2.70;;;;;;;;;;4958547;28;19945;-73
2021/10/05 11:01:14;;;;;;;6.35;2.72;;;;;;;;;;4952603;28;20031;-75
2021/10/05 11:03:40;;;;;;;9.60;2.70;;;;;;;;;;4959980;28;20458;-72
2021/10/05 11:06:13;;;;;;;9.43;3.35;;;;;;;;;;4983651;28;20027;-73
2021/10/05 11:08:39;;;;;;;10.25;3.95;;;;;;;;;;4950407;29;20197;-74
2021/10/05 11:11:05;;;;;;;6.20;2.85;;;;;;;;;;4967359;28;20401;-73
2021/10/05 11:13:32;;;;;;;8.50;3.13;;;;;;;;;;4959643;28;20046;-74
2021/10/05 11:15:58;;;;;;;7.55;2.95;;;;;;;;;;4952629;28;20043;-73
2021/10/05 11:18:26;;;;;;;6.18;2.95;;;;;;;;;;4948663;29;20031;-74
2021/10/05 11:20:53;;;;;;;5.32;2.92;;;;;;;;;;4950270;29;20038;-73
2021/10/05 11:23:21;;;;;;;9.95;3.10;;;;;;;;;;4957140;28;20027;-74
2021/10/05 11:25:48;;;;;;;9.10;3.15;;;;;;;;;;4964765;28;20494;-72
2021/10/05 11:28:15;;;;;;;5.93;2.70;;;;;;;;;;4957765;28;20047;-73
2021/10/05 11:30:49;;;;;;;9.70;2.90;;;;;;;;;;4944730;29;20030;-73
2021/10/05 11:33:23;;;;;;;8.40;3.47;;;;;;;;;;4960236;28;20030;-73
2021/10/05 11:35:49;;;;;;;10.20;3.97;;;;;;;;;;4952201;28;20317;-72
2021/10/05 11:38:15;;;;;;;8.50;3.92;;;;;;;;;;4956684;28;20529;-73
2021/10/05 11:40:55;;;;;;;8.52;4.32;;;;;;;;;;4961418;28;20081;-73
2021/10/05 11:43:42;;;;;;;8.48;4.00;;;;;;;;;;4957073;28;20413;-74
2021/10/05 11:46:14;;;;;;;8.63;4.30;;;;;;;;;;4959270;28;20424;-73
2021/10/05 11:48:41;;;;;;;6.90;3.80;;;;;;;;;;4949631;28;20421;-73
2021/10/05 11:51:07;;;;;;;8.73;4.03;;;;;;;;;;4943179;28;20023;-73
2021/10/05 11:53:33;;;;;;;7.97;4.13;;;;;;;;;;4952624;28;20043;-73
2021/10/05 11:56:03;;;;;;;7.40;4.10;;;;;;;;;;4953445;28;20493;-73
2021/10/05 11:58:39;;;;;;;7.55;4.18;;;;;;;;;;4963452;28;20050;-73
2021/10/05 12:01:16;;;;;;;12.65;5.13;;;;;;;;;;4953010;28;20061;-73
2021/10/05 12:03:44;;;;;;;7.28;4.47;;;;;;;;;;4971091;28;20030;-73
2021/10/05 12:06:10;;;;;;;7.68;4.47;;;;;;;;;;4951648;28;20031;-73
2021/10/05 12:08:45;;;;;;;9.07;4.78;;;;;;;;;;4957642;28;20026;-73
2021/10/05 12:11:11;;;;;;;11.18;5.25;;;;;;;;;;4944004;28;20183;-73
2021/10/05 12:13:38;;;;;;;10.32;5.85;;;;;;;;;;4952312;28;20446;-73
2021/10/05 12:16:16;;;;;;;9.40;5.63;;;;;;;;;;4951985;28;20055;-73
2021/10/05 12:18:43;;;;;;;11.73;6.20;;;;;;;;;;4953807;28;20082;-73
2021/10/05 12:21:10;;;;;;;12.85;6.30;;;;;;;;;;4950822;28;20793;-73
2021/10/05 12:23:36;;;;;;;10.40;6.03;;;;;;;;;;4952950;28;20170;-73
2021/10/05 12:26:13;;;;;;;11.48;5.57;;;;;;;;;;4965365;28;20051;-73
2021/10/05 12:28:40;;;;;;;11.02;5.57;;;;;;;;;;4957950;28;20059;-73
2021/10/05 12:31:13;;;;;;;10.82;5.20;;;;;;;;;;4954215;29;20065;-73
2021/10/05 12:33:39;;;;;;;15.07;5.10;;;;;;;;;;4947479;29;20590;-72
2021/10/05 12:36:05;;;;;;;16.77;6.40;;;;;;;;;;4953288;29;20027;-71
2021/10/05 12:38:35;;;;;;;14.30;4.93;;;;;;;;;;4966832;28;20015;-72
2021/10/05 12:41:01;;;;;;;12.20;5.20;;;;;;;;;;4958861;28;20394;-73
2021/10/05 12:43:36;;;;;;;20.88;4.40;;;;;;;;;;4961950;28;20106;-72
2021/10/05 12:46:04;;;;;;;14.43;4.18;;;;;;;;;;4956946;28;20042;-72
2021/10/05 12:48:34;;;;;;;17.45;4.60;;;;;;;;;;4958551;28;20024;-72
2021/10/05 12:51:00;;;;;;;12.65;4.40;;;;;;;;;;4954472;28;20035;-72
2021/10/05 12:53:26;;;;;;;16.00;3.58;;;;;;;;;;4963535;28;20556;-72
2021/10/05 12:55:52;;;;;;;14.00;3.13;;;;;;;;;;4953850;28;20039;-70
2021/10/05 12:58:18;;;;;;;17.17;3.22;;;;;;;;;;4951512;29;20035;-72
2021/10/05 13:00:44;;;;;;;9.60;2.63;;;;;;;;;;4955122;28;20045;-72
2021/10/05 13:03:12;;;;;;;13.25;2.88;;;;;;;;;;4961964;28;20031;-72
2021/10/05 13:05:39;;;;;;;17.83;2.80;;;;;;;;;;4961204;28;20038;-71
2021/10/05 13:08:05;;;;;;;12.52;2.40;;;;;;;;;;4954546;28;20402;-71
2021/10/05 13:10:31;;;;;;;12.45;2.20;;;;;;;;;;4960745;28;20023;-72
2021/10/05 13:12:58;;;;;;;17.60;2.33;;;;;;;;;;4965324;28;20031;-72
2021/10/05 13:15:24;;;;;;;8.23;1.77;;;;;;;;;;4959762;28;20482;-72
2021/10/05 13:17:51;;;;;;;11.32;2.13;;;;;;;;;;4973855;28;20038;-71
2021/10/05 13:20:17;;;;;;;10.52;1.65;;;;;;;;;;4978756;28;20043;-72
2021/10/05 13:22:44;;;;;;;9.77;2.25;;;;;;;;;;4950911;29;20046;-72
2021/10/05 13:25:11;;;;;;;9.05;2.05;;;;;;;;;;4954494;28;20027;-71
2021/10/05 13:27:37;;;;;;;11.00;3.10;;;;;;;;;;4961457;28;20015;-72
2021/10/05 13:30:05;;;;;;;9.35;1.75;;;;;;;;;;4974027;28;20034;-71
2021/10/05 13:32:31;;;;;;;8.20;1.80;;;;;;;;;;4949352;29;20019;-71
2021/10/05 13:34:57;;;;;;;11.85;1.58;;;;;;;;;;4953129;28;20078;-72
2021/10/05 13:37:23;;;;;;;9.40;1.55;;;;;;;;;;4961639;28;20027;-71
2021/10/05 13:39:49;;;;;;;7.47;1.98;;;;;;;;;;4950458;29;20078;-72
2021/10/05 13:42:15;;;;;;;5.45;1.30;;;;;;;;;;4946628;29;20029;-70
2021/10/05 13:44:43;;;;;;;6.18;1.00;;;;;;;;;;4960436;28;20034;-70
2021/10/05 13:47:09;;;;;;;9.18;1.70;;;;;;;;;;4954583;28;20027;-73
2021/10/05 13:49:35;;;;;;;10.63;1.45;;;;;;;;;;4948425;28;20031;-71
2021/10/05 13:52:01;;;;;;;8.90;1.50;;;;;;;;;;4947658;28;20044;-71
2021/10/05 13:54:27;;;;;;;6.20;1.75;;;;;;;;;;4968461;28;20097;-73
2021/10/05 13:56:53;;;;;;;9.20;1.58;;;;;;;;;;4957596;28;20109;-73
2021/10/05 13:59:19;;;;;;;7.80;1.63;;;;;;;;;;4947988;28;20031;-73
2021/10/05 14:01:45;;;;;;;9.90;1.70;;;;;;;;;;4951833;28;20038;-72
2021/10/05 14:04:11;;;;;;;8.20;1.48;;;;;;;;;;4948105;29;20027;-71
2021/10/05 14:06:37;;;;;;;8.40;1.45;;;;;;;;;;4949689;28;20066;-73
2021/10/05 14:09:04;;;;;;;11.48;1.65;;;;;;;;;;4947555;28;20023;-74
2021/10/05 14:11:30;;;;;;;8.45;1.10;;;;;;;;;;4954795;28;20159;-71
2021/10/05 14:13:59;;;;;;;7.65;1.30;;;;;;;;;;4952252;28;20382;-73
2021/10/05 14:16:25;;;;;;;6.90;1.30;;;;;;;;;;4955578;28;20085;-72
2021/10/05 14:18:51;;;;;;;9.57;1.63;;;;;;;;;;4953797;28;20039;-72
2021/10/05 14:21:17;;;;;;;10.73;1.83;;;;;;;;;;4955081;28;20045;-72
2021/10/05 14:23:44;;;;;;;5.88;1.60;;;;;;;;;;4950442;28;20035;-72
2021/10/05 14:26:10;;;;;;;10.98;1.85;;;;;;;;;;4948797;28;20023;-73
2021/10/05 14:28:36;;;;;;;10.60;1.50;;;;;;;;;;4946703;28;20046;-74
2021/10/05 14:31:02;;;;;;;8.57;1.98;;;;;;;;;;4965687;28;20035;-71
2021/10/05 14:33:28;;;;;;;11.48;2.10;;;;;;;;;;4952676;29;20027;-71
2021/10/05 14:35:54;;;;;;;8.00;1.40;;;;;;;;;;4959815;28;20039;-73
2021/10/05 14:38:21;;;;;;;4.95;1.33;;;;;;;;;;4942678;28;20035;-73
2021/10/05 14:40:47;;;;;;;11.90;1.30;;;;;;;;;;4951327;29;20407;-73
2021/10/05 14:43:13;;;;;;;6.45;1.40;;;;;;;;;;4953143;28;20023;-72
2021/10/05 14:45:39;;;;;;;6.50;1.63;;;;;;;;;;4950973;28;20043;-72